createdAt,value
2022-08-21T00:01:43.303Z,1.80
2022-08-21T00:04:11.771Z,2.10
2022-08-21T00:06:41.973Z,2.10
2022-08-21T00:09:10.171Z,2.63
2022-08-21T00:11:39.796Z,2.10
2022-08-21T00:14:09.573Z,2.10
2022-08-21T00:16:37.003Z,2.37
2022-08-21T00:19:04.652Z,2.23
2022-08-21T00:21:31.672Z,2.30
2022-08-21T00:23:58.475Z,2.13
2022-08-21T00:26:25.265Z,2.10
2022-08-21T00:28:52.047Z,2.03
2022-08-21T00:31:19.132Z,2.17
2022-08-21T00:33:46.556Z,1.83
2022-08-21T00:36:14.258Z,2.23
2022-08-21T00:38:41.371Z,2.33
2022-08-21T00:41:21.070Z,2.13
2022-08-21T00:43:57.650Z,1.90
2022-08-21T00:46:28.139Z,2.10
2022-08-21T00:48:57.243Z,2.60
2022-08-21T00:51:48.174Z,2.10
2022-08-21T00:54:18.646Z,1.80
2022-08-21T00:56:53.748Z,2.30
2022-08-21T00:59:24.283Z,1.67
2022-08-21T01:01:51.665Z,2.23
2022-08-21T01:04:19.336Z,1.80
2022-08-21T01:06:48.611Z,2.20
2022-08-21T01:09:15.803Z,2.37
2022-08-21T01:11:48.938Z,2.20
2022-08-21T01:14:16.207Z,2.10
2022-08-21T01:16:46.268Z,2.07
2022-08-21T01:19:14.819Z,2.17
2022-08-21T01:21:42.191Z,1.87
2022-08-21T01:24:11.888Z,2.30
2022-08-21T01:26:38.995Z,2.10
2022-08-21T01:29:23.945Z,1.90
2022-08-21T01:31:50.768Z,2.07
2022-08-21T01:34:18.160Z,2.13
2022-08-21T01:36:46.660Z,2.10
2022-08-21T01:39:14.035Z,1.93
2022-08-21T01:41:40.935Z,2.30
2022-08-21T01:44:07.815Z,2.30
2022-08-21T01:46:35.009Z,2.00
2022-08-21T01:49:01.999Z,2.23
2022-08-21T01:51:28.776Z,2.30
2022-08-21T01:53:55.600Z,2.20
2022-08-21T01:56:22.742Z,2.27
2022-08-21T01:58:49.779Z,2.90
2022-08-21T02:01:16.954Z,2.30
2022-08-21T02:03:43.881Z,2.10
2022-08-21T02:06:15.797Z,2.40
2022-08-21T02:08:42.627Z,2.23
2022-08-21T02:11:09.375Z,2.40
2022-08-21T02:13:36.360Z,2.63
2022-08-21T02:16:03.558Z,2.43
2022-08-21T02:18:30.753Z,1.83
2022-08-21T02:20:57.780Z,2.70
2022-08-21T02:23:27.428Z,2.83
2022-08-21T02:25:56.269Z,2.63
2022-08-21T02:28:23.222Z,2.33
2022-08-21T02:30:50.810Z,3.20
2022-08-21T02:33:19.355Z,3.00
2022-08-21T02:35:47.887Z,2.67
2022-08-21T02:38:18.941Z,2.93
2022-08-21T02:40:51.179Z,2.53
2022-08-21T02:43:20.114Z,3.10
2022-08-21T02:45:48.325Z,2.40
2022-08-21T02:48:19.623Z,2.83
2022-08-21T02:50:49.040Z,3.40
2022-08-21T02:53:17.601Z,2.37
2022-08-21T02:55:50.859Z,2.60
2022-08-21T02:58:24.228Z,2.50
2022-08-21T03:00:52.261Z,2.70
2022-08-21T03:03:21.952Z,2.87
2022-08-21T03:05:49.495Z,2.60
2022-08-21T03:08:17.024Z,3.00
2022-08-21T03:10:47.283Z,2.80
2022-08-21T03:13:14.983Z,2.90
2022-08-21T03:15:42.393Z,2.40
2022-08-21T03:18:10.880Z,2.87
2022-08-21T03:20:39.409Z,3.03
2022-08-21T03:23:07.710Z,3.07
2022-08-21T03:25:41.141Z,2.73
2022-08-21T03:28:13.043Z,2.87
2022-08-21T03:30:44.604Z,2.83
2022-08-21T03:33:12.956Z,2.70
2022-08-21T03:35:43.831Z,2.50
2022-08-21T03:38:13.596Z,2.30
2022-08-21T03:40:41.119Z,3.00
2022-08-21T03:43:10.016Z,3.80
2022-08-21T03:45:37.293Z,3.30
2022-08-21T03:48:05.733Z,2.47
2022-08-21T03:50:36.424Z,2.77
2022-08-21T03:53:09.200Z,3.17
2022-08-21T03:55:48.839Z,3.43
2022-08-21T03:58:18.155Z,3.10
2022-08-21T04:00:51.857Z,3.27
2022-08-21T04:03:19.404Z,2.73
2022-08-21T04:05:46.834Z,2.43
2022-08-21T04:08:15.219Z,3.27
2022-08-21T04:10:44.173Z,3.63
2022-08-21T04:13:10.983Z,3.30
2022-08-21T04:15:37.884Z,3.23
2022-08-21T04:18:05.699Z,4.10
2022-08-21T04:20:32.947Z,3.47
2022-08-21T04:23:00.017Z,2.80
2022-08-21T04:25:27.183Z,3.83
2022-08-21T04:27:54.376Z,4.10
2022-08-21T04:30:21.597Z,3.00
2022-08-21T04:32:57.755Z,3.03
2022-08-21T04:35:26.689Z,3.50
2022-08-21T04:37:53.821Z,3.63
2022-08-21T04:40:22.456Z,3.13
2022-08-21T04:42:56.120Z,3.23
2022-08-21T04:45:29.581Z,3.80
2022-08-21T04:47:58.700Z,3.80
2022-08-21T04:50:42.364Z,3.43
2022-08-21T04:53:14.253Z,3.53
2022-08-21T04:55:43.317Z,3.80
2022-08-21T04:58:12.608Z,4.07
2022-08-21T05:00:39.792Z,4.23
2022-08-21T05:03:08.721Z,4.20
2022-08-21T05:05:35.905Z,3.93
2022-08-21T05:08:04.263Z,4.07
2022-08-21T05:10:32.504Z,4.13
2022-08-21T05:13:01.469Z,4.57
2022-08-21T05:15:28.413Z,4.60
2022-08-21T05:18:00.789Z,4.10
2022-08-21T05:20:29.030Z,5.43
2022-08-21T05:22:56.337Z,4.10
2022-08-21T05:25:23.806Z,4.30
2022-08-21T05:27:52.189Z,4.00
2022-08-21T05:30:19.954Z,5.27
2022-08-21T05:32:48.448Z,4.63
2022-08-21T05:35:16.003Z,4.23
2022-08-21T05:37:42.862Z,5.40
2022-08-21T05:40:21.503Z,4.90
2022-08-21T05:42:56.261Z,5.50
2022-08-21T05:45:41.652Z,5.10
2022-08-21T05:48:24.494Z,5.33
2022-08-21T05:50:52.956Z,5.00
2022-08-21T05:53:21.986Z,5.67
2022-08-21T05:55:49.322Z,5.60
2022-08-21T05:58:21.760Z,5.30
2022-08-21T06:00:50.246Z,5.37
2022-08-21T06:03:26.249Z,6.20
2022-08-21T06:05:53.922Z,6.23
2022-08-21T06:08:21.663Z,6.50
2022-08-21T06:10:49.885Z,6.10
2022-08-21T06:13:18.076Z,6.90
2022-08-21T06:15:44.856Z,6.23
2022-08-21T06:18:12.286Z,5.70
2022-08-21T06:20:40.195Z,6.27
2022-08-21T06:23:07.005Z,7.00
2022-08-21T06:25:33.936Z,6.97
2022-08-21T06:28:09.433Z,7.20
2022-08-21T06:30:37.844Z,7.37
2022-08-21T06:33:05.283Z,7.37
2022-08-21T06:35:32.091Z,7.20
2022-08-21T06:37:59.840Z,7.03
2022-08-21T06:40:30.449Z,6.73
2022-08-21T06:43:10.570Z,7.30
2022-08-21T06:45:37.764Z,6.27
2022-08-21T06:48:05.031Z,7.20
2022-08-21T06:50:32.266Z,6.53
2022-08-21T06:53:09.026Z,5.67
2022-08-21T06:55:35.864Z,5.73
2022-08-21T06:58:03.457Z,5.60
2022-08-21T07:00:31.448Z,5.20
2022-08-21T07:02:58.900Z,5.33
2022-08-21T07:05:30.445Z,2.60
2022-08-21T07:07:58.120Z,2.80
2022-08-21T07:10:28.844Z,2.87
2022-08-21T07:13:00.617Z,3.27
2022-08-21T07:15:32.518Z,2.60
2022-08-21T07:18:00.759Z,2.43
2022-08-21T07:20:32.320Z,2.63
2022-08-21T07:23:05.493Z,2.63
2022-08-21T07:25:32.549Z,2.33
2022-08-21T07:27:59.603Z,3.20
2022-08-21T07:30:27.512Z,2.57
2022-08-21T07:32:54.573Z,2.80
2022-08-21T07:35:22.432Z,2.70
2022-08-21T07:37:49.286Z,3.27
2022-08-21T07:40:18.015Z,2.60
2022-08-21T07:42:47.802Z,2.70
2022-08-21T07:45:15.271Z,2.50
2022-08-21T07:47:43.120Z,3.10
2022-08-21T07:50:12.340Z,4.70
2022-08-21T07:52:40.207Z,4.90
2022-08-21T07:55:08.779Z,5.37
2022-08-21T07:57:35.536Z,4.40
2022-08-21T08:00:04.079Z,4.73
2022-08-21T08:02:31.425Z,5.17
2022-08-21T08:05:02.635Z,5.23
2022-08-21T08:07:29.429Z,4.70
2022-08-21T08:09:56.280Z,4.30
2022-08-21T08:12:23.380Z,4.73
2022-08-21T08:14:50.221Z,5.10
2022-08-21T08:17:17.071Z,4.13
2022-08-21T08:19:44.309Z,5.43
2022-08-21T08:22:24.903Z,4.70
2022-08-21T08:24:53.140Z,4.20
2022-08-21T08:27:20.572Z,5.47
2022-08-21T08:29:47.720Z,4.10
2022-08-21T08:32:15.201Z,3.80
2022-08-21T08:34:42.022Z,4.50
2022-08-21T08:37:10.711Z,4.43
2022-08-21T08:39:39.008Z,3.60
2022-08-21T08:42:32.144Z,3.77
2022-08-21T08:45:08.783Z,4.30
2022-08-21T08:47:56.277Z,4.20
2022-08-21T08:50:28.276Z,4.03
2022-08-21T08:53:01.307Z,3.57
2022-08-21T08:55:35.595Z,3.70
2022-08-21T08:58:03.682Z,4.00
2022-08-21T09:00:31.859Z,4.10
2022-08-21T09:03:01.887Z,4.03
2022-08-21T09:05:41.187Z,4.63
2022-08-21T09:08:25.905Z,3.83
2022-08-21T09:11:04.513Z,3.67
2022-08-21T09:13:40.180Z,3.70
2022-08-21T09:16:09.718Z,3.80
2022-08-21T09:18:36.547Z,3.47
2022-08-21T09:21:21.812Z,3.90
2022-08-21T09:23:58.951Z,3.47
2022-08-21T09:26:48.671Z,3.90
2022-08-21T09:29:21.189Z,3.40
2022-08-21T09:31:48.816Z,3.63
2022-08-21T09:34:29.948Z,3.40
2022-08-21T09:36:57.228Z,3.30
2022-08-21T09:39:30.817Z,4.07
2022-08-21T09:42:03.025Z,3.07
2022-08-21T09:44:33.947Z,3.10
2022-08-21T09:47:01.542Z,3.73
2022-08-21T09:49:29.882Z,3.00
2022-08-21T09:51:59.513Z,2.80
2022-08-21T09:54:32.436Z,3.10
2022-08-21T09:57:37.408Z,3.03
2022-08-21T10:00:27.170Z,3.13
2022-08-21T10:02:54.634Z,2.90
2022-08-21T10:05:25.698Z,2.77
2022-08-21T10:07:53.596Z,2.80
2022-08-21T10:10:24.761Z,3.00
2022-08-21T10:13:23.696Z,3.60
2022-08-21T10:16:15.062Z,3.30
2022-08-21T10:19:10.886Z,2.60
2022-08-21T10:21:47.401Z,2.93
2022-08-21T10:24:30.921Z,2.60
2022-08-21T10:27:16.663Z,3.00
2022-08-21T10:29:46.249Z,2.70
2022-08-21T10:32:25.930Z,2.90
2022-08-21T10:35:07.477Z,3.57
2022-08-21T10:37:49.535Z,2.73
2022-08-21T10:40:19.228Z,3.10
2022-08-21T10:43:07.621Z,3.10
2022-08-21T10:45:43.269Z,2.83
2022-08-21T10:48:19.234Z,2.70
2022-08-21T10:51:05.978Z,2.60
2022-08-21T10:54:12.454Z,3.30
2022-08-21T10:56:42.211Z,2.70
2022-08-21T10:59:29.347Z,3.20
2022-08-21T11:02:03.293Z,2.80
2022-08-21T11:04:46.222Z,3.00
2022-08-21T11:07:38.167Z,2.60
2022-08-21T11:10:26.739Z,2.90
2022-08-21T11:13:04.191Z,2.50
2022-08-21T11:16:05.996Z,2.50
2022-08-21T11:18:38.417Z,2.50
2022-08-21T11:21:35.057Z,2.40
2022-08-21T11:24:15.993Z,2.40
2022-08-21T11:27:02.080Z,2.70
2022-08-21T11:29:40.655Z,2.60
2022-08-21T11:32:32.100Z,3.00
2022-08-21T11:35:20.723Z,2.50
2022-08-21T11:38:25.113Z,2.60
2022-08-21T11:41:10.191Z,2.40
2022-08-21T11:43:46.373Z,2.70
2022-08-21T11:46:45.261Z,2.27
2022-08-21T11:49:59.742Z,2.77
2022-08-21T11:52:47.940Z,3.10
2022-08-21T11:55:27.772Z,2.53
2022-08-21T11:58:02.804Z,2.80
2022-08-21T12:00:39.760Z,2.83
2022-08-21T12:03:23.633Z,2.80
2022-08-21T12:06:23.939Z,2.33
2022-08-21T12:09:00.833Z,3.10
2022-08-21T12:11:31.093Z,2.83
2022-08-21T12:14:15.037Z,2.93
2022-08-21T12:16:47.008Z,3.00
2022-08-21T12:19:15.200Z,2.60
2022-08-21T12:22:07.973Z,2.40
2022-08-21T12:24:46.844Z,2.90
2022-08-21T12:27:41.725Z,2.83
2022-08-21T12:30:40.738Z,2.47
2022-08-21T12:33:22.525Z,3.00
2022-08-21T12:35:51.665Z,2.63
2022-08-21T12:38:40.387Z,2.40
2022-08-21T12:41:17.574Z,3.50
2022-08-21T12:43:49.904Z,2.30
2022-08-21T12:46:29.085Z,3.13
2022-08-21T12:49:00.867Z,2.60
2022-08-21T12:51:46.525Z,2.57
2022-08-21T12:54:28.080Z,2.97
2022-08-21T12:57:03.248Z,2.90
2022-08-21T12:59:31.062Z,2.90
2022-08-21T13:02:00.886Z,2.37
2022-08-21T13:04:38.347Z,2.83
2022-08-21T13:07:13.252Z,2.60
2022-08-21T13:09:54.748Z,2.83
2022-08-21T13:12:23.788Z,2.40
2022-08-21T13:14:58.216Z,2.33
2022-08-21T13:17:26.567Z,2.70
2022-08-21T13:20:02.429Z,3.07
2022-08-21T13:22:34.393Z,2.43
2022-08-21T13:25:07.153Z,2.60
2022-08-21T13:27:35.129Z,2.67
2022-08-21T13:30:23.111Z,2.27
2022-08-21T13:32:53.504Z,2.57
2022-08-21T13:35:23.530Z,2.50
2022-08-21T13:37:52.748Z,2.50
2022-08-21T13:40:47.368Z,2.57
2022-08-21T13:43:19.904Z,2.63
2022-08-21T13:45:53.366Z,2.60
2022-08-21T13:48:22.808Z,2.83
2022-08-21T13:50:50.302Z,2.83
2022-08-21T13:53:30.521Z,2.67
2022-08-21T13:56:00.773Z,3.03
2022-08-21T13:58:41.921Z,3.20
2022-08-21T14:01:40.866Z,2.50
2022-08-21T14:04:21.999Z,3.13
2022-08-21T14:06:49.613Z,3.17
2022-08-21T14:09:32.800Z,2.57
2022-08-21T14:12:04.568Z,2.70
2022-08-21T14:14:34.832Z,3.07
2022-08-21T14:17:24.915Z,2.87
2022-08-21T14:19:52.357Z,2.50
2022-08-21T14:22:40.102Z,2.80
2022-08-21T14:25:14.082Z,2.83
2022-08-21T14:28:00.032Z,2.87
2022-08-21T14:30:34.098Z,2.70
2022-08-21T14:33:02.905Z,2.50
2022-08-21T14:35:30.108Z,2.43
2022-08-21T14:37:58.849Z,2.50
2022-08-21T14:40:26.210Z,2.70
2022-08-21T14:42:54.119Z,2.70
2022-08-21T14:45:27.615Z,2.03
2022-08-21T14:47:55.714Z,2.60
2022-08-21T14:50:22.999Z,2.80
2022-08-21T14:52:50.246Z,2.97
2022-08-21T14:55:18.644Z,2.50
2022-08-21T14:57:51.100Z,2.63
2022-08-21T15:00:23.945Z,2.77
2022-08-21T15:02:54.200Z,2.57
2022-08-21T15:05:26.828Z,2.83
2022-08-21T15:08:00.035Z,2.93
2022-08-21T15:10:27.124Z,2.70
2022-08-21T15:12:53.967Z,3.10
2022-08-21T15:15:20.853Z,2.70
2022-08-21T15:17:48.480Z,2.97
2022-08-21T15:20:15.976Z,2.57
2022-08-21T15:22:47.840Z,2.43
2022-08-21T15:25:15.160Z,2.20
2022-08-21T15:27:41.983Z,2.80
2022-08-21T15:30:09.374Z,2.20
2022-08-21T15:32:36.294Z,2.93
2022-08-21T15:35:03.734Z,2.30
2022-08-21T15:37:30.741Z,2.60
2022-08-21T15:39:57.835Z,2.30
2022-08-21T15:42:27.799Z,2.93
2022-08-21T15:44:56.291Z,2.50
2022-08-21T15:47:29.402Z,2.83
2022-08-21T15:49:56.231Z,2.70
2022-08-21T15:52:23.885Z,2.63
2022-08-21T15:54:51.811Z,2.80
2022-08-21T15:57:23.185Z,2.50
2022-08-21T15:59:53.548Z,2.60
2022-08-21T16:02:24.551Z,2.87
2022-08-21T16:04:51.465Z,3.23
2022-08-21T16:07:18.243Z,2.40
2022-08-21T16:09:45.844Z,2.63
2022-08-21T16:12:31.794Z,3.20
2022-08-21T16:15:00.489Z,2.50
2022-08-21T16:17:31.288Z,2.63
2022-08-21T16:19:58.460Z,3.13
2022-08-21T16:22:25.391Z,2.93
2022-08-21T16:25:07.480Z,3.17
2022-08-21T16:27:36.479Z,3.00
2022-08-21T16:30:07.259Z,2.83
2022-08-21T16:32:35.391Z,3.17
2022-08-21T16:35:04.036Z,2.70
2022-08-21T16:37:30.969Z,2.87
2022-08-21T16:39:57.914Z,3.20
2022-08-21T16:42:26.082Z,2.97
2022-08-21T16:44:55.293Z,2.87
2022-08-21T16:47:26.893Z,3.60
2022-08-21T16:49:54.733Z,3.23
2022-08-21T16:52:21.520Z,2.63
2022-08-21T16:54:48.289Z,3.43
2022-08-21T16:57:15.172Z,3.00
2022-08-21T16:59:42.166Z,2.97
2022-08-21T17:02:30.422Z,2.83
2022-08-21T17:04:57.400Z,2.87
2022-08-21T17:07:24.590Z,2.90
2022-08-21T17:09:51.632Z,2.93
2022-08-21T17:12:19.113Z,2.83
2022-08-21T17:14:46.765Z,2.90
2022-08-21T17:17:14.303Z,3.30
2022-08-21T17:19:43.207Z,3.30
2022-08-21T17:22:10.996Z,2.83
2022-08-21T17:24:38.109Z,2.60
2022-08-21T17:27:06.966Z,2.90
2022-08-21T17:29:38.470Z,3.03
2022-08-21T17:32:10.156Z,3.30
2022-08-21T17:34:38.964Z,2.77
2022-08-21T17:37:07.267Z,3.40
2022-08-21T17:39:34.487Z,3.00
2022-08-21T17:42:06.446Z,3.10
2022-08-21T17:44:33.588Z,3.00
2022-08-21T17:47:00.980Z,3.10
2022-08-21T17:49:27.815Z,3.43
2022-08-21T17:51:54.611Z,3.13
2022-08-21T17:54:21.555Z,3.20
2022-08-21T17:56:48.544Z,3.50
2022-08-21T17:59:15.550Z,3.17
2022-08-21T18:01:44.970Z,2.50
2022-08-21T18:04:12.476Z,2.77
2022-08-21T18:06:39.733Z,3.27
2022-08-21T18:09:07.201Z,3.80
2022-08-21T18:11:35.042Z,2.93
2022-08-21T18:14:07.658Z,3.40
2022-08-21T18:16:37.439Z,3.70
2022-08-21T18:19:08.969Z,3.10
2022-08-21T18:21:36.126Z,3.40
2022-08-21T18:24:03.152Z,3.57
2022-08-21T18:26:34.666Z,3.20
2022-08-21T18:29:02.491Z,2.90
2022-08-21T18:31:32.161Z,3.33
2022-08-21T18:34:02.647Z,3.53
2022-08-21T18:36:29.759Z,2.90
2022-08-21T18:39:13.519Z,3.20
2022-08-21T18:41:45.751Z,3.43
2022-08-21T18:44:14.669Z,3.30
2022-08-21T18:46:45.308Z,3.20
2022-08-21T18:49:12.086Z,3.47
2022-08-21T18:51:41.643Z,3.23
2022-08-21T18:54:12.891Z,3.40
2022-08-21T18:56:40.407Z,3.20
2022-08-21T18:59:07.941Z,3.80
2022-08-21T19:01:35.583Z,3.70
2022-08-21T19:04:02.947Z,3.90
2022-08-21T19:06:29.794Z,2.90
2022-08-21T19:08:56.770Z,3.60
2022-08-21T19:11:25.905Z,3.70
2022-08-21T19:13:53.882Z,3.70
2022-08-21T19:16:22.385Z,3.30
2022-08-21T19:18:50.018Z,3.50
2022-08-21T19:21:16.938Z,3.07
2022-08-21T19:23:48.126Z,3.60
2022-08-21T19:26:21.958Z,3.30
2022-08-21T19:28:52.230Z,3.97
2022-08-21T19:31:23.674Z,3.80
2022-08-21T19:34:12.273Z,3.73
2022-08-21T19:36:42.777Z,3.30
2022-08-21T19:39:11.003Z,3.50
2022-08-21T19:41:45.380Z,3.53
2022-08-21T19:44:20.770Z,4.00
2022-08-21T19:46:50.084Z,3.93
2022-08-21T19:49:22.211Z,3.27
2022-08-21T19:51:49.562Z,3.57
2022-08-21T19:54:28.484Z,3.40
2022-08-21T19:56:58.354Z,4.90
2022-08-21T19:59:28.041Z,4.17
2022-08-21T20:01:55.745Z,3.10
2022-08-21T20:04:23.640Z,3.53
2022-08-21T20:06:52.529Z,3.77
2022-08-21T20:09:20.318Z,3.40
2022-08-21T20:11:51.779Z,3.50
2022-08-21T20:14:22.703Z,3.93
2022-08-21T20:16:52.676Z,3.73
2022-08-21T20:19:20.383Z,3.63
2022-08-21T20:21:47.469Z,3.77
2022-08-21T20:24:15.307Z,3.70
2022-08-21T20:26:49.477Z,3.30
2022-08-21T20:29:28.772Z,3.20
2022-08-21T20:32:08.022Z,3.63
2022-08-21T20:34:40.061Z,3.47
2022-08-21T20:37:06.821Z,3.73
2022-08-21T20:39:36.154Z,3.50
2022-08-21T20:42:07.008Z,4.20
2022-08-21T20:44:34.417Z,4.20
2022-08-21T20:47:08.653Z,3.87
2022-08-21T20:49:43.327Z,4.10
2022-08-21T20:52:10.849Z,4.10
2022-08-21T20:54:50.609Z,3.20
2022-08-21T20:57:45.745Z,4.03
2022-08-21T21:00:20.881Z,4.00
2022-08-21T21:03:09.488Z,3.60
2022-08-21T21:05:44.236Z,3.80
2022-08-21T21:08:32.696Z,3.43
2022-08-21T21:11:07.644Z,4.17
2022-08-21T21:13:49.467Z,4.67
2022-08-21T21:16:32.409Z,4.00
2022-08-21T21:19:01.257Z,3.97
2022-08-21T21:21:51.648Z,3.60
2022-08-21T21:24:27.717Z,4.20
2022-08-21T21:27:11.539Z,4.43
2022-08-21T21:30:12.252Z,3.87
2022-08-21T21:32:41.457Z,3.93
2022-08-21T21:35:12.329Z,3.87
2022-08-21T21:38:17.587Z,3.90
2022-08-21T21:41:25.946Z,3.80
2022-08-21T21:44:07.533Z,3.73
2022-08-21T21:46:54.410Z,3.70
2022-08-21T21:49:29.499Z,4.03
2022-08-21T21:52:05.344Z,3.50
2022-08-21T21:54:52.409Z,3.93
2022-08-21T21:57:41.324Z,3.33
2022-08-21T22:00:20.135Z,3.67
2022-08-21T22:03:13.191Z,3.80
2022-08-21T22:05:45.819Z,3.40
2022-08-21T22:08:30.022Z,3.63
2022-08-21T22:11:02.309Z,3.80
2022-08-21T22:13:54.617Z,3.77
2022-08-21T22:16:22.344Z,3.70
2022-08-21T22:18:55.178Z,3.60
2022-08-21T22:21:34.295Z,4.67
2022-08-21T22:24:15.377Z,4.17
2022-08-21T22:26:48.294Z,3.97
2022-08-21T22:29:20.092Z,4.13
2022-08-21T22:32:08.608Z,4.20
2022-08-21T22:34:36.530Z,4.40
2022-08-21T22:37:10.076Z,3.53
2022-08-21T22:39:41.482Z,4.20
2022-08-21T22:42:10.847Z,4.70
2022-08-21T22:44:58.737Z,4.00
2022-08-21T22:47:42.977Z,4.60
2022-08-21T22:50:25.749Z,3.80
2022-08-21T22:53:00.042Z,4.07
2022-08-21T22:55:54.291Z,4.17
2022-08-21T22:58:29.294Z,5.43
2022-08-21T23:01:07.333Z,4.67
2022-08-21T23:03:44.997Z,3.60
2022-08-21T23:06:32.656Z,3.90
2022-08-21T23:09:01.220Z,3.87
2022-08-21T23:11:42.800Z,3.50
2022-08-21T23:14:11.958Z,4.10
2022-08-21T23:17:02.632Z,4.60
2022-08-21T23:19:44.566Z,4.33
2022-08-21T23:22:29.918Z,3.63
2022-08-21T23:24:56.700Z,4.57
2022-08-21T23:27:48.709Z,3.77
2022-08-21T23:30:38.580Z,3.50
2022-08-21T23:33:13.752Z,4.40
2022-08-21T23:36:30.992Z,3.53
2022-08-21T23:39:09.710Z,3.43
2022-08-21T23:42:05.496Z,4.00
2022-08-21T23:44:55.204Z,4.17
2022-08-21T23:47:37.000Z,4.10
2022-08-21T23:50:36.823Z,3.63
2022-08-21T23:53:09.135Z,3.60
2022-08-21T23:55:56.048Z,4.30
2022-08-21T23:58:54.070Z,3.90
